createdAt,value
2023-01-18T00:02:22.318Z,-3.21
2023-01-18T00:04:49.104Z,-3.20
2023-01-18T00:07:15.981Z,-3.18
2023-01-18T00:09:42.727Z,-3.15
2023-01-18T00:12:09.521Z,-3.09
2023-01-18T00:14:37.689Z,-2.91
2023-01-18T00:17:04.439Z,-2.99
2023-01-18T00:19:31.220Z,-3.02
2023-01-18T00:21:58.046Z,-3.10
2023-01-18T00:24:24.786Z,-3.13
2023-01-18T00:26:51.631Z,-3.12
2023-01-18T00:29:18.607Z,-3.13
2023-01-18T00:31:46.804Z,-3.14
2023-01-18T00:34:13.568Z,-3.13
2023-01-18T00:36:40.312Z,-3.10
2023-01-18T00:39:07.058Z,-3.04
2023-01-18T00:41:33.932Z,-2.97
2023-01-18T00:44:00.728Z,-3.02
2023-01-18T00:46:27.710Z,-2.99
2023-01-18T00:48:56.323Z,-3.03
2023-01-18T00:51:24.954Z,-2.98
2023-01-18T00:53:52.063Z,-3.05
2023-01-18T00:56:20.718Z,-3.03
2023-01-18T00:58:47.942Z,-3.20
2023-01-18T01:01:15.251Z,-3.18
2023-01-18T01:03:42.308Z,-3.15
2023-01-18T01:06:14.784Z,-3.11
2023-01-18T01:08:41.520Z,-3.02
2023-01-18T01:11:09.840Z,-2.92
2023-01-18T01:13:37.463Z,-2.88
2023-01-18T01:16:05.519Z,-2.96
2023-01-18T01:18:32.300Z,-3.03
2023-01-18T01:20:59.186Z,-3.13
2023-01-18T01:23:27.293Z,-3.13
2023-01-18T01:25:54.440Z,-3.12
2023-01-18T01:28:21.244Z,-3.09
2023-01-18T01:30:48.088Z,-2.98
2023-01-18T01:33:16.708Z,-3.02
2023-01-18T01:35:43.511Z,-3.02
2023-01-18T01:38:10.330Z,-3.04
2023-01-18T01:40:38.452Z,-3.13
2023-01-18T01:43:10.223Z,-3.09
2023-01-18T01:45:37.184Z,-3.04
2023-01-18T01:48:04.443Z,-2.91
2023-01-18T01:50:36.719Z,-2.96
2023-01-18T01:53:04.249Z,-3.03
2023-01-18T01:55:33.349Z,-3.10
2023-01-18T01:58:05.680Z,-3.16
2023-01-18T02:00:33.658Z,-3.10
2023-01-18T02:03:03.355Z,-3.11
2023-01-18T02:05:31.820Z,-3.12
2023-01-18T02:08:01.127Z,-3.14
2023-01-18T02:10:28.521Z,-3.20
2023-01-18T02:12:57.460Z,-3.16
2023-01-18T02:15:35.481Z,-2.93
2023-01-18T02:18:18.512Z,-2.89
2023-01-18T02:21:06.575Z,-3.02
2023-01-18T02:24:05.089Z,-3.03
2023-01-18T02:26:52.261Z,-3.04
2023-01-18T02:29:30.026Z,-2.93
2023-01-18T02:32:13.974Z,-2.92
2023-01-18T02:34:44.560Z,-3.11
2023-01-18T02:37:19.034Z,-3.04
2023-01-18T02:39:58.975Z,-2.97
2023-01-18T02:42:27.944Z,-2.99
2023-01-18T02:44:56.613Z,-3.01
2023-01-18T02:47:24.981Z,-3.02
2023-01-18T02:49:51.796Z,-2.94
2023-01-18T02:52:39.126Z,-3.04
2023-01-18T02:55:10.176Z,-3.06
2023-01-18T02:57:37.615Z,-3.12
2023-01-18T03:00:10.328Z,-3.05
2023-01-18T03:02:39.406Z,-3.13
2023-01-18T03:05:08.708Z,-3.16
2023-01-18T03:07:42.990Z,-3.04
2023-01-18T03:10:11.809Z,-2.98
2023-01-18T03:12:44.815Z,-3.14
2023-01-18T03:15:19.158Z,-3.17
2023-01-18T03:17:51.211Z,-3.17
2023-01-18T03:20:21.615Z,-3.14
2023-01-18T03:22:51.170Z,-3.12
2023-01-18T03:25:21.286Z,-3.11
2023-01-18T03:27:51.970Z,-3.15
2023-01-18T03:30:20.308Z,-3.15
2023-01-18T03:32:47.224Z,-3.12
2023-01-18T03:35:17.623Z,-3.09
2023-01-18T03:37:46.996Z,-3.03
2023-01-18T03:40:17.222Z,-2.89
2023-01-18T03:42:51.233Z,-3.00
2023-01-18T03:45:26.421Z,-3.02
2023-01-18T03:47:53.587Z,-3.05
2023-01-18T03:50:28.148Z,-3.05
2023-01-18T03:52:59.113Z,-2.99
2023-01-18T03:55:34.217Z,-2.93
2023-01-18T03:58:05.131Z,-2.91
2023-01-18T04:00:33.319Z,-2.83
2023-01-18T04:03:00.464Z,-2.78
2023-01-18T04:05:27.935Z,-2.75
2023-01-18T04:07:54.725Z,-2.89
2023-01-18T04:10:21.510Z,-2.96
2023-01-18T04:12:48.260Z,-2.97
2023-01-18T04:15:15.345Z,-3.02
2023-01-18T04:17:43.504Z,-2.84
2023-01-18T04:20:10.986Z,-2.87
2023-01-18T04:22:37.827Z,-2.86
2023-01-18T04:25:05.197Z,-2.86
2023-01-18T04:27:31.966Z,-2.88
2023-01-18T04:29:58.831Z,-2.89
2023-01-18T04:32:25.559Z,-2.86
2023-01-18T04:34:53.712Z,-2.87
2023-01-18T04:37:20.737Z,-2.95
2023-01-18T04:39:47.693Z,-2.89
2023-01-18T04:42:16.054Z,-2.90
2023-01-18T04:44:42.814Z,-2.90
2023-01-18T04:47:09.776Z,-2.90
2023-01-18T04:49:36.586Z,-2.88
2023-01-18T04:52:05.055Z,-2.90
2023-01-18T04:54:31.835Z,-2.94
2023-01-18T04:56:58.678Z,-2.95
2023-01-18T04:59:25.519Z,-2.81
2023-01-18T05:01:52.338Z,-2.89
2023-01-18T05:04:19.200Z,-2.98
2023-01-18T05:06:48.216Z,-2.99
2023-01-18T05:09:16.672Z,-2.98
2023-01-18T05:11:43.402Z,-2.95
2023-01-18T05:14:10.153Z,-2.99
2023-01-18T05:16:37.003Z,-2.95
2023-01-18T05:19:03.839Z,-3.04
2023-01-18T05:21:30.649Z,-2.92
2023-01-18T05:23:57.434Z,-2.97
2023-01-18T05:26:25.555Z,-2.88
2023-01-18T05:28:56.878Z,-2.74
2023-01-18T05:31:23.913Z,-2.81
2023-01-18T05:33:50.679Z,-2.79
2023-01-18T05:36:17.719Z,-2.86
2023-01-18T05:38:44.530Z,-2.73
2023-01-18T05:41:11.335Z,-2.82
2023-01-18T05:43:39.556Z,-2.93
2023-01-18T05:46:06.492Z,-2.98
2023-01-18T05:48:33.321Z,-2.98
2023-01-18T05:51:00.223Z,-3.01
2023-01-18T05:53:27.095Z,-3.02
2023-01-18T05:55:55.282Z,-3.10
2023-01-18T05:58:22.334Z,-3.16
2023-01-18T06:00:50.827Z,-3.16
2023-01-18T06:03:17.579Z,-3.19
2023-01-18T06:05:44.396Z,-3.14
2023-01-18T06:08:11.513Z,-2.97
2023-01-18T06:10:38.310Z,-3.02
2023-01-18T06:13:05.141Z,-2.99
2023-01-18T06:15:31.887Z,-3.03
2023-01-18T06:18:00.479Z,-3.05
2023-01-18T06:20:28.470Z,-3.03
2023-01-18T06:22:56.736Z,-2.93
2023-01-18T06:25:24.587Z,-2.92
2023-01-18T06:27:51.944Z,-3.01
2023-01-18T06:30:19.563Z,-2.95
2023-01-18T06:32:46.287Z,-3.08
2023-01-18T06:35:14.790Z,-3.18
2023-01-18T06:37:41.564Z,-3.15
2023-01-18T06:40:09.934Z,-3.13
2023-01-18T06:42:36.888Z,-2.98
2023-01-18T06:45:04.408Z,-3.11
2023-01-18T06:47:34.163Z,-3.18
2023-01-18T06:50:00.965Z,-3.26
2023-01-18T06:52:29.207Z,-3.38
2023-01-18T06:54:55.968Z,-3.48
2023-01-18T06:57:22.741Z,-3.64
2023-01-18T06:59:49.667Z,-3.74
2023-01-18T07:02:16.570Z,-3.69
2023-01-18T07:04:43.384Z,-3.72
2023-01-18T07:07:10.152Z,-3.67
2023-01-18T07:09:38.433Z,-3.44
2023-01-18T07:12:05.635Z,-3.31
2023-01-18T07:14:32.463Z,-3.32
2023-01-18T07:16:59.331Z,-3.40
2023-01-18T07:19:27.045Z,-3.43
2023-01-18T07:21:53.820Z,-3.64
2023-01-18T07:24:20.925Z,-3.62
2023-01-18T07:26:49.069Z,-3.64
2023-01-18T07:29:15.862Z,-3.60
2023-01-18T07:31:42.646Z,-3.57
2023-01-18T07:34:13.062Z,-3.40
2023-01-18T07:36:40.105Z,-3.23
2023-01-18T07:39:07.502Z,-3.15
2023-01-18T07:41:34.846Z,-3.10
2023-01-18T07:44:03.966Z,-2.93
2023-01-18T07:46:31.444Z,-2.92
2023-01-18T07:48:58.945Z,-2.98
2023-01-18T07:51:25.904Z,-2.93
2023-01-18T07:53:54.039Z,-2.86
2023-01-18T07:56:21.152Z,-2.80
2023-01-18T07:58:48.256Z,-2.91
2023-01-18T08:01:18.725Z,-2.84
2023-01-18T08:03:47.135Z,-2.56
2023-01-18T08:06:15.611Z,-2.45
2023-01-18T08:08:43.266Z,-2.32
2023-01-18T08:11:11.491Z,-2.27
2023-01-18T08:13:39.510Z,-2.25
2023-01-18T08:16:08.911Z,-2.20
2023-01-18T08:18:37.085Z,-2.09
2023-01-18T08:21:04.857Z,-1.93
2023-01-18T08:23:32.261Z,-1.80
2023-01-18T08:26:02.691Z,-1.69
2023-01-18T08:28:29.579Z,-1.51
2023-01-18T08:31:07.308Z,-1.38
2023-01-18T08:33:39.248Z,-1.27
2023-01-18T08:36:09.737Z,-1.24
2023-01-18T08:38:36.519Z,-1.26
2023-01-18T08:41:04.320Z,-1.28
2023-01-18T08:43:31.159Z,-1.33
2023-01-18T08:45:57.951Z,-1.35
2023-01-18T08:48:25.195Z,-1.30
2023-01-18T08:50:53.662Z,-1.27
2023-01-18T08:53:20.507Z,-1.20
2023-01-18T08:55:47.352Z,-1.15
2023-01-18T08:58:14.273Z,-1.08
2023-01-18T09:00:41.051Z,-1.14
2023-01-18T09:03:08.142Z,-1.01
2023-01-18T09:05:35.257Z,-0.52
2023-01-18T09:08:03.464Z,0.15
2023-01-18T09:10:30.283Z,0.74
2023-01-18T09:12:57.527Z,0.98
2023-01-18T09:15:24.479Z,1.04
2023-01-18T09:17:51.250Z,1.23
2023-01-18T09:20:19.123Z,1.34
2023-01-18T09:22:47.103Z,1.36
2023-01-18T09:25:15.876Z,1.19
2023-01-18T09:27:42.757Z,1.05
2023-01-18T09:30:10.758Z,0.90
2023-01-18T09:32:37.656Z,0.78
2023-01-18T09:35:05.557Z,0.67
2023-01-18T09:37:32.535Z,0.62
2023-01-18T09:39:59.394Z,0.61
2023-01-18T09:42:34.949Z,0.63
2023-01-18T09:45:02.577Z,0.91
2023-01-18T09:47:32.842Z,1.08
2023-01-18T09:50:02.948Z,1.07
2023-01-18T09:52:43.711Z,0.97
2023-01-18T09:55:18.871Z,0.89
2023-01-18T09:58:07.438Z,0.83
2023-01-18T10:00:38.659Z,0.71
2023-01-18T10:03:13.196Z,0.62
2023-01-18T10:05:46.237Z,0.57
2023-01-18T10:08:16.707Z,0.47
2023-01-18T10:10:56.000Z,0.33
2023-01-18T10:13:42.685Z,0.37
2023-01-18T10:16:11.070Z,0.65
2023-01-18T10:18:37.920Z,0.94
2023-01-18T10:21:07.565Z,1.20
2023-01-18T10:23:41.141Z,1.41
2023-01-18T10:26:13.826Z,1.52
2023-01-18T10:28:53.347Z,1.57
2023-01-18T10:31:34.179Z,1.49
2023-01-18T10:34:02.259Z,1.38
2023-01-18T10:36:33.283Z,1.20
2023-01-18T10:39:02.722Z,1.05
2023-01-18T10:41:35.628Z,0.92
2023-01-18T10:44:04.562Z,0.85
2023-01-18T10:46:31.391Z,0.77
2023-01-18T10:48:58.196Z,0.13
2023-01-18T10:51:29.725Z,0.41
2023-01-18T10:53:56.543Z,0.56
2023-01-18T10:56:25.653Z,0.63
2023-01-18T10:58:56.817Z,0.78
2023-01-18T11:01:27.536Z,0.92
2023-01-18T11:03:58.722Z,1.05
2023-01-18T11:06:25.636Z,1.14
2023-01-18T11:08:53.223Z,1.28
2023-01-18T11:11:31.279Z,1.29
2023-01-18T11:13:58.074Z,1.30
2023-01-18T11:16:26.272Z,1.34
2023-01-18T11:19:02.162Z,1.30
2023-01-18T11:21:44.678Z,1.31
2023-01-18T11:24:15.472Z,1.35
2023-01-18T11:26:52.550Z,1.41
2023-01-18T11:29:21.813Z,1.53
2023-01-18T11:31:51.653Z,1.57
2023-01-18T11:34:26.753Z,1.43
2023-01-18T11:36:54.659Z,1.33
2023-01-18T11:39:30.249Z,1.27
2023-01-18T11:42:29.168Z,1.16
2023-01-18T11:45:12.659Z,1.08
2023-01-18T11:47:53.915Z,1.08
2023-01-18T11:50:29.925Z,0.99
2023-01-18T11:53:03.847Z,1.00
2023-01-18T11:55:35.584Z,0.97
2023-01-18T11:58:03.048Z,1.03
2023-01-18T12:00:39.970Z,1.16
2023-01-18T12:03:25.034Z,1.19
2023-01-18T12:05:55.079Z,1.23
2023-01-18T12:08:41.315Z,1.20
2023-01-18T12:11:23.585Z,1.09
2023-01-18T12:13:59.915Z,1.07
2023-01-18T12:16:48.425Z,1.00
2023-01-18T12:19:34.242Z,0.96
2023-01-18T12:22:21.133Z,0.93
2023-01-18T12:25:01.150Z,0.90
2023-01-18T12:27:37.275Z,0.85
2023-01-18T12:30:18.873Z,0.79
2023-01-18T12:33:12.799Z,0.65
2023-01-18T12:36:02.630Z,0.14
2023-01-18T12:38:32.322Z,0.20
2023-01-18T12:41:28.709Z,0.17
2023-01-18T12:44:15.670Z,0.10
2023-01-18T12:46:48.227Z,-0.08
2023-01-18T12:49:17.418Z,-0.27
2023-01-18T12:51:48.912Z,-0.36
2023-01-18T12:54:25.502Z,-0.39
2023-01-18T12:56:54.783Z,-0.57
2023-01-18T12:59:25.632Z,-0.58
2023-01-18T13:01:57.570Z,-0.56
2023-01-18T13:04:31.627Z,-0.56
2023-01-18T13:07:04.274Z,-0.56
2023-01-18T13:09:35.911Z,-0.67
2023-01-18T13:12:05.096Z,-0.75
2023-01-18T13:14:38.877Z,-0.63
2023-01-18T13:17:11.592Z,-0.57
2023-01-18T13:19:42.575Z,-0.54
2023-01-18T13:22:20.623Z,-0.54
2023-01-18T13:24:58.657Z,-0.61
2023-01-18T13:27:25.523Z,-0.70
2023-01-18T13:29:52.419Z,-0.57
2023-01-18T13:32:22.921Z,-0.49
2023-01-18T13:35:17.256Z,-0.57
2023-01-18T13:37:49.017Z,-0.71
2023-01-18T13:40:22.626Z,-0.92
2023-01-18T13:42:49.482Z,-0.92
2023-01-18T13:45:20.810Z,-0.96
2023-01-18T13:47:51.293Z,-1.01
2023-01-18T13:50:43.793Z,-1.11
2023-01-18T13:53:30.675Z,-0.87
2023-01-18T13:56:26.326Z,-0.70
2023-01-18T13:59:03.166Z,-0.59
2023-01-18T14:01:33.717Z,-0.52
2023-01-18T14:04:31.984Z,-0.43
2023-01-18T14:07:01.955Z,-0.50
2023-01-18T14:09:35.656Z,-0.55
2023-01-18T14:12:03.948Z,-0.79
2023-01-18T14:14:34.167Z,-0.61
2023-01-18T14:17:06.311Z,-0.55
2023-01-18T14:19:55.437Z,-0.49
2023-01-18T14:22:36.289Z,-0.48
2023-01-18T14:25:23.065Z,-0.43
2023-01-18T14:28:01.564Z,-0.40
2023-01-18T14:30:31.498Z,-0.36
2023-01-18T14:33:02.791Z,-0.36
2023-01-18T14:35:30.216Z,-0.35
2023-01-18T14:38:16.910Z,-0.36
2023-01-18T14:40:47.678Z,-0.33
2023-01-18T14:43:21.423Z,-0.50
2023-01-18T14:45:55.375Z,-0.60
2023-01-18T14:48:24.090Z,-0.69
2023-01-18T14:50:53.973Z,-0.78
2023-01-18T14:53:24.198Z,-0.83
2023-01-18T14:56:07.948Z,-0.89
2023-01-18T14:58:38.132Z,-0.98
2023-01-18T15:01:05.930Z,-1.11
2023-01-18T15:03:33.213Z,-1.22
2023-01-18T15:06:07.590Z,-1.34
2023-01-18T15:08:34.573Z,-1.33
2023-01-18T15:11:02.984Z,-1.33
2023-01-18T15:13:32.614Z,-1.31
2023-01-18T15:16:01.246Z,-1.35
2023-01-18T15:18:29.713Z,-1.32
2023-01-18T15:20:59.333Z,-1.32
2023-01-18T15:23:27.115Z,-1.38
2023-01-18T15:25:55.497Z,-1.44
2023-01-18T15:28:24.201Z,-1.49
2023-01-18T15:30:54.411Z,-1.40
2023-01-18T15:33:23.411Z,-1.64
2023-01-18T15:35:55.567Z,-1.86
2023-01-18T15:38:22.479Z,-1.75
2023-01-18T15:40:57.054Z,-1.71
2023-01-18T15:43:29.849Z,-1.69
2023-01-18T15:45:59.579Z,-1.70
2023-01-18T15:48:29.764Z,-1.77
2023-01-18T15:51:04.261Z,-1.84
2023-01-18T15:53:34.172Z,-1.87
2023-01-18T15:56:02.951Z,-1.91
2023-01-18T15:58:33.475Z,-1.93
2023-01-18T16:01:04.868Z,-1.99
2023-01-18T16:03:36.016Z,-2.19
2023-01-18T16:06:09.363Z,-2.35
2023-01-18T16:08:36.514Z,-2.39
2023-01-18T16:11:03.309Z,-2.35
2023-01-18T16:13:34.587Z,-2.34
2023-01-18T16:16:20.085Z,-2.34
2023-01-18T16:18:50.554Z,-2.33
2023-01-18T16:21:26.372Z,-2.30
2023-01-18T16:23:54.163Z,-2.32
2023-01-18T16:26:25.361Z,-2.26
2023-01-18T16:28:52.486Z,-2.22
2023-01-18T16:31:22.899Z,-2.16
2023-01-18T16:33:50.201Z,-2.11
2023-01-18T16:36:19.298Z,-2.10
2023-01-18T16:38:46.368Z,-2.08
2023-01-18T16:41:14.441Z,-2.06
2023-01-18T16:43:41.441Z,-2.06
2023-01-18T16:46:08.889Z,-2.15
2023-01-18T16:48:37.295Z,-2.34
2023-01-18T16:51:11.883Z,-2.25
2023-01-18T16:53:38.706Z,-2.27
2023-01-18T16:56:06.271Z,-2.35
2023-01-18T16:58:33.055Z,-2.30
2023-01-18T17:01:05.051Z,-2.19
2023-01-18T17:03:31.923Z,-2.19
2023-01-18T17:06:00.389Z,-2.15
2023-01-18T17:08:27.146Z,-2.13
2023-01-18T17:10:53.915Z,-2.18
2023-01-18T17:13:20.667Z,-2.28
2023-01-18T17:15:47.640Z,-2.28
2023-01-18T17:18:18.337Z,-2.23
2023-01-18T17:20:45.261Z,-2.30
2023-01-18T17:23:13.438Z,-2.31
2023-01-18T17:25:40.176Z,-2.25
2023-01-18T17:28:07.175Z,-2.20
2023-01-18T17:30:34.288Z,-2.17
2023-01-18T17:33:01.550Z,-2.13
2023-01-18T17:35:28.699Z,-2.09
2023-01-18T17:38:00.966Z,-2.07
2023-01-18T17:40:43.871Z,-2.07
2023-01-18T17:43:13.684Z,-2.02
2023-01-18T17:45:43.933Z,-2.06
2023-01-18T17:48:13.545Z,-2.05
2023-01-18T17:50:40.933Z,-2.06
2023-01-18T17:53:08.579Z,-2.07
2023-01-18T17:55:36.016Z,-2.05
2023-01-18T17:58:04.783Z,-2.08
2023-01-18T18:00:31.744Z,-2.00
2023-01-18T18:03:01.069Z,-2.15
2023-01-18T18:05:27.983Z,-2.20
2023-01-18T18:07:54.814Z,-2.45
2023-01-18T18:10:21.642Z,-2.45
2023-01-18T18:12:48.631Z,-2.39
2023-01-18T18:15:17.073Z,-2.32
2023-01-18T18:17:44.151Z,-2.28
2023-01-18T18:20:11.463Z,-2.23
2023-01-18T18:22:38.330Z,-2.31
2023-01-18T18:25:06.703Z,-2.42
2023-01-18T18:27:44.933Z,-2.47
2023-01-18T18:30:12.828Z,-2.45
2023-01-18T18:32:41.195Z,-2.44
2023-01-18T18:35:23.845Z,-2.46
2023-01-18T18:37:52.265Z,-2.48
2023-01-18T18:40:22.260Z,-2.44
2023-01-18T18:43:07.422Z,-2.40
2023-01-18T18:45:35.726Z,-2.33
2023-01-18T18:48:04.590Z,-2.28
2023-01-18T18:50:31.466Z,-2.25
2023-01-18T18:52:59.026Z,-2.19
2023-01-18T18:55:26.013Z,-2.18
2023-01-18T18:57:52.787Z,-2.16
2023-01-18T19:00:20.773Z,-2.16
2023-01-18T19:02:47.679Z,-2.07
2023-01-18T19:05:15.907Z,-2.19
2023-01-18T19:07:42.802Z,-2.19
2023-01-18T19:10:11.412Z,-2.25
2023-01-18T19:12:38.202Z,-2.26
2023-01-18T19:15:05.896Z,-2.33
2023-01-18T19:17:32.642Z,-2.27
2023-01-18T19:19:59.565Z,-2.27
2023-01-18T19:22:27.746Z,-2.39
2023-01-18T19:24:54.548Z,-2.42
2023-01-18T19:27:21.425Z,-2.46
2023-01-18T19:29:48.267Z,-2.61
2023-01-18T19:32:15.257Z,-2.58
2023-01-18T19:34:42.079Z,-2.52
2023-01-18T19:37:08.825Z,-2.46
2023-01-18T19:39:37.263Z,-2.42
2023-01-18T19:42:04.188Z,-2.21
2023-01-18T19:44:36.496Z,-2.24
2023-01-18T19:47:03.666Z,-2.28
2023-01-18T19:49:30.440Z,-2.26
2023-01-18T19:51:57.276Z,-2.25
2023-01-18T19:54:24.069Z,-2.21
2023-01-18T19:56:52.188Z,-2.18
2023-01-18T19:59:19.014Z,-2.20
2023-01-18T20:01:45.934Z,-2.16
2023-01-18T20:04:13.545Z,-2.23
2023-01-18T20:06:41.961Z,-2.25
2023-01-18T20:09:18.885Z,-2.24
2023-01-18T20:11:47.040Z,-2.25
2023-01-18T20:14:15.553Z,-2.26
2023-01-18T20:16:46.212Z,-2.31
2023-01-18T20:19:14.019Z,-2.28
2023-01-18T20:21:41.198Z,-2.25
2023-01-18T20:24:08.835Z,-2.23
2023-01-18T20:26:38.080Z,-2.22
2023-01-18T20:29:06.174Z,-2.23
2023-01-18T20:31:34.838Z,-2.22
2023-01-18T20:34:01.924Z,-2.19
2023-01-18T20:36:28.735Z,-2.19
2023-01-18T20:38:55.614Z,-2.18
2023-01-18T20:41:22.371Z,-2.26
2023-01-18T20:43:49.119Z,-2.30
2023-01-18T20:46:15.906Z,-2.31
2023-01-18T20:48:44.045Z,-2.23
2023-01-18T20:51:10.855Z,-2.21
2023-01-18T20:53:37.617Z,-2.18
2023-01-18T20:56:08.341Z,-2.15
2023-01-18T20:58:38.432Z,-2.13
2023-01-18T21:01:05.918Z,-2.20
2023-01-18T21:03:32.895Z,-2.22
2023-01-18T21:06:01.106Z,-2.19
2023-01-18T21:08:27.993Z,-2.17
2023-01-18T21:10:54.823Z,-2.13
2023-01-18T21:13:21.687Z,-2.16
2023-01-18T21:15:54.560Z,-2.19
2023-01-18T21:18:21.523Z,-2.16
2023-01-18T21:20:51.827Z,-2.19
2023-01-18T21:23:20.313Z,-2.18
2023-01-18T21:25:50.431Z,-2.18
2023-01-18T21:28:17.313Z,-2.16
2023-01-18T21:30:44.232Z,-2.16
2023-01-18T21:33:11.383Z,-2.14
2023-01-18T21:35:38.349Z,-2.13
2023-01-18T21:38:05.099Z,-2.13
2023-01-18T21:40:33.492Z,-2.12
2023-01-18T21:43:00.272Z,-2.11
2023-01-18T21:45:27.119Z,-2.14
2023-01-18T21:47:54.010Z,-2.09
2023-01-18T21:50:20.791Z,-2.10
2023-01-18T21:52:48.810Z,-1.99
2023-01-18T21:55:15.980Z,-1.97
2023-01-18T21:57:46.582Z,-2.14
2023-01-18T22:00:14.309Z,-2.14
2023-01-18T22:02:41.120Z,-2.14
2023-01-18T22:05:08.776Z,-2.13
2023-01-18T22:07:35.643Z,-2.15
2023-01-18T22:10:05.697Z,-2.16
2023-01-18T22:12:34.279Z,-2.19
2023-01-18T22:15:02.623Z,-2.18
2023-01-18T22:17:29.393Z,-2.17
2023-01-18T22:19:56.158Z,-2.16
2023-01-18T22:22:23.993Z,-2.17
2023-01-18T22:24:51.035Z,-2.11
2023-01-18T22:27:17.909Z,-2.16
2023-01-18T22:29:44.667Z,-2.22
2023-01-18T22:32:12.843Z,-2.23
2023-01-18T22:34:39.785Z,-2.22
2023-01-18T22:37:06.547Z,-2.19
2023-01-18T22:39:33.340Z,-2.16
2023-01-18T22:42:00.175Z,-2.14
2023-01-18T22:44:26.942Z,-2.18
2023-01-18T22:46:53.843Z,-2.11
2023-01-18T22:49:21.969Z,-2.18
2023-01-18T22:51:48.812Z,-2.06
2023-01-18T22:54:15.611Z,-2.14
2023-01-18T22:56:42.482Z,-2.19
2023-01-18T22:59:09.271Z,-2.19
2023-01-18T23:01:36.108Z,-2.20
2023-01-18T23:04:04.365Z,-2.18
2023-01-18T23:06:33.025Z,-2.19
2023-01-18T23:08:59.833Z,-2.19
2023-01-18T23:11:29.943Z,-2.18
2023-01-18T23:13:57.857Z,-2.17
2023-01-18T23:16:24.695Z,-2.18
2023-01-18T23:18:51.492Z,-2.19
2023-01-18T23:21:18.583Z,-2.17
2023-01-18T23:23:46.760Z,-2.16
2023-01-18T23:26:13.939Z,-2.12
2023-01-18T23:28:40.762Z,-2.10
2023-01-18T23:31:07.728Z,-2.09
2023-01-18T23:33:34.713Z,-2.09
2023-01-18T23:36:01.472Z,-2.10
2023-01-18T23:38:28.338Z,-2.13
2023-01-18T23:40:56.839Z,-2.19
2023-01-18T23:43:23.772Z,-2.17
2023-01-18T23:45:50.536Z,-2.20
2023-01-18T23:48:19.518Z,-2.20
2023-01-18T23:50:47.161Z,-2.18
2023-01-18T23:53:14.489Z,-2.18
2023-01-18T23:55:41.207Z,-2.17
2023-01-18T23:58:09.412Z,-2.14
